createdAt,value
2023-03-07T00:00:08.645Z,55.10
2023-03-07T00:02:56.572Z,51.75
2023-03-07T00:05:24.763Z,52.58
2023-03-07T00:07:52.733Z,53.78
2023-03-07T00:10:20.843Z,54.89
2023-03-07T00:12:48.867Z,56.81
2023-03-07T00:15:17.348Z,58.36
2023-03-07T00:17:45.757Z,59.48
2023-03-07T00:20:16.665Z,59.48
2023-03-07T00:22:47.033Z,60.10
2023-03-07T00:25:15.411Z,61.32
2023-03-07T00:27:43.542Z,61.66
2023-03-07T00:30:14.894Z,65.28
2023-03-07T00:32:43.196Z,70.75
2023-03-07T00:35:11.345Z,68.00
2023-03-07T00:37:39.411Z,64.57
2023-03-07T00:40:09.584Z,61.46
2023-03-07T00:42:37.606Z,56.01
2023-03-07T00:45:06.125Z,52.00
2023-03-07T00:47:34.765Z,51.93
2023-03-07T00:50:04.472Z,52.80
2023-03-07T00:52:33.877Z,53.66
2023-03-07T00:55:02.069Z,54.42
2023-03-07T00:57:30.535Z,55.63
2023-03-07T00:59:58.609Z,56.62
2023-03-07T01:02:26.595Z,57.53
2023-03-07T01:04:54.852Z,58.61
2023-03-07T01:07:22.925Z,59.31
2023-03-07T01:09:53.312Z,59.90
2023-03-07T01:12:21.415Z,60.38
2023-03-07T01:14:51.121Z,61.00
2023-03-07T01:17:19.237Z,63.41
2023-03-07T01:19:47.272Z,69.02
2023-03-07T01:22:15.337Z,68.10
2023-03-07T01:24:43.515Z,64.11
2023-03-07T01:27:11.990Z,62.04
2023-03-07T01:29:40.400Z,57.45
2023-03-07T01:32:08.880Z,53.04
2023-03-07T01:34:37.131Z,52.70
2023-03-07T01:37:05.116Z,53.65
2023-03-07T01:39:33.619Z,54.86
2023-03-07T01:42:05.849Z,55.83
2023-03-07T01:45:05.775Z,56.74
2023-03-07T01:47:43.764Z,56.98
2023-03-07T01:50:17.690Z,58.38
2023-03-07T01:53:08.791Z,59.52
2023-03-07T01:55:37.671Z,60.16
2023-03-07T01:58:15.777Z,61.03
2023-03-07T02:00:45.403Z,61.68
2023-03-07T02:03:26.461Z,64.68
2023-03-07T02:05:58.774Z,71.15
2023-03-07T02:08:30.900Z,69.33
2023-03-07T02:10:58.993Z,66.45
2023-03-07T02:13:27.157Z,63.47
2023-03-07T02:15:56.464Z,58.20
2023-03-07T02:18:28.656Z,52.59
2023-03-07T02:21:09.601Z,51.84
2023-03-07T02:23:43.902Z,52.68
2023-03-07T02:26:30.976Z,53.76
2023-03-07T02:29:00.833Z,54.65
2023-03-07T02:31:29.513Z,55.72
2023-03-07T02:33:57.506Z,56.66
2023-03-07T02:36:30.773Z,57.68
2023-03-07T02:39:09.764Z,58.11
2023-03-07T02:41:40.472Z,58.97
2023-03-07T02:44:14.594Z,59.53
2023-03-07T02:46:42.616Z,60.23
2023-03-07T02:49:10.700Z,61.04
2023-03-07T02:51:38.724Z,61.64
2023-03-07T02:54:08.603Z,64.45
2023-03-07T02:56:36.970Z,70.65
2023-03-07T02:59:05.458Z,70.49
2023-03-07T03:01:33.527Z,67.77
2023-03-07T03:04:01.585Z,64.58
2023-03-07T03:06:29.765Z,58.81
2023-03-07T03:08:58.651Z,51.99
2023-03-07T03:11:27.632Z,51.03
2023-03-07T03:13:55.717Z,51.52
2023-03-07T03:16:23.723Z,52.84
2023-03-07T03:18:51.889Z,54.00
2023-03-07T03:21:20.637Z,54.30
2023-03-07T03:23:48.809Z,55.37
2023-03-07T03:26:17.010Z,56.44
2023-03-07T03:28:45.051Z,57.25
2023-03-07T03:31:17.063Z,57.94
2023-03-07T03:33:45.513Z,58.65
2023-03-07T03:36:16.418Z,59.37
2023-03-07T03:38:45.554Z,60.01
2023-03-07T03:41:18.471Z,60.41
2023-03-07T03:43:48.259Z,60.87
2023-03-07T03:46:17.164Z,61.61
2023-03-07T03:48:52.699Z,64.86
2023-03-07T03:51:22.807Z,71.22
2023-03-07T03:53:51.670Z,70.43
2023-03-07T03:56:21.721Z,67.06
2023-03-07T03:58:55.931Z,63.66
2023-03-07T04:01:26.656Z,56.51
2023-03-07T04:03:55.540Z,51.19
2023-03-07T04:06:29.246Z,50.72
2023-03-07T04:08:58.030Z,51.55
2023-03-07T04:11:26.709Z,53.25
2023-03-07T04:13:54.873Z,54.77
2023-03-07T04:16:23.910Z,55.51
2023-03-07T04:18:52.662Z,56.15
2023-03-07T04:21:22.378Z,56.79
2023-03-07T04:23:55.769Z,57.58
2023-03-07T04:26:26.074Z,58.42
2023-03-07T04:28:54.160Z,59.23
2023-03-07T04:31:49.018Z,59.85
2023-03-07T04:34:17.439Z,60.86
2023-03-07T04:36:45.539Z,61.51
2023-03-07T04:39:14.002Z,64.94
2023-03-07T04:41:42.468Z,70.96
2023-03-07T04:44:17.406Z,69.94
2023-03-07T04:46:45.468Z,66.59
2023-03-07T04:49:13.888Z,63.78
2023-03-07T04:51:44.044Z,57.51
2023-03-07T04:54:14.589Z,51.36
2023-03-07T04:56:42.915Z,51.96
2023-03-07T04:59:12.378Z,52.60
2023-03-07T05:01:40.896Z,53.23
2023-03-07T05:04:09.360Z,54.32
2023-03-07T05:06:39.553Z,55.32
2023-03-07T05:09:08.157Z,56.55
2023-03-07T05:11:36.205Z,57.76
2023-03-07T05:14:04.601Z,58.70
2023-03-07T05:16:33.804Z,59.75
2023-03-07T05:19:02.576Z,59.97
2023-03-07T05:21:32.313Z,60.47
2023-03-07T05:24:00.794Z,61.16
2023-03-07T05:26:29.492Z,64.62
2023-03-07T05:28:57.522Z,69.98
2023-03-07T05:31:25.703Z,68.12
2023-03-07T05:33:53.895Z,64.56
2023-03-07T05:36:21.935Z,61.14
2023-03-07T05:38:50.607Z,55.86
2023-03-07T05:41:19.986Z,51.36
2023-03-07T05:43:48.313Z,51.87
2023-03-07T05:46:16.393Z,52.68
2023-03-07T05:48:44.555Z,53.54
2023-03-07T05:51:13.096Z,54.89
2023-03-07T05:53:43.685Z,55.95
2023-03-07T05:56:12.032Z,57.27
2023-03-07T05:58:40.623Z,57.29
2023-03-07T06:01:08.992Z,59.33
2023-03-07T06:03:38.761Z,60.13
2023-03-07T06:06:07.492Z,60.87
2023-03-07T06:08:35.559Z,61.48
2023-03-07T06:11:04.107Z,63.64
2023-03-07T06:13:32.317Z,68.27
2023-03-07T06:16:00.258Z,65.52
2023-03-07T06:18:28.364Z,62.29
2023-03-07T06:21:05.406Z,56.50
2023-03-07T06:23:37.231Z,52.31
2023-03-07T06:26:10.390Z,52.83
2023-03-07T06:28:42.713Z,54.10
2023-03-07T06:31:13.941Z,55.55
2023-03-07T06:33:43.461Z,56.16
2023-03-07T06:36:14.689Z,58.12
2023-03-07T06:38:44.061Z,58.11
2023-03-07T06:41:12.276Z,58.70
2023-03-07T06:43:41.033Z,58.89
2023-03-07T06:46:09.318Z,59.68
2023-03-07T06:48:40.596Z,60.46
2023-03-07T06:51:11.386Z,61.47
2023-03-07T06:53:41.398Z,61.44
2023-03-07T06:56:10.218Z,64.14
2023-03-07T06:58:38.895Z,68.07
2023-03-07T07:01:07.284Z,65.73
2023-03-07T07:03:36.337Z,61.90
2023-03-07T07:06:04.555Z,57.80
2023-03-07T07:08:32.687Z,52.29
2023-03-07T07:11:00.757Z,52.05
2023-03-07T07:13:29.776Z,53.08
2023-03-07T07:16:03.293Z,53.86
2023-03-07T07:18:32.132Z,55.26
2023-03-07T07:21:00.232Z,56.94
2023-03-07T07:23:29.215Z,58.21
2023-03-07T07:25:57.165Z,58.58
2023-03-07T07:28:25.236Z,59.22
2023-03-07T07:30:53.514Z,59.73
2023-03-07T07:33:21.571Z,59.93
2023-03-07T07:35:50.701Z,60.09
2023-03-07T07:38:19.365Z,61.11
2023-03-07T07:40:47.349Z,60.87
2023-03-07T07:43:17.661Z,64.34
2023-03-07T07:45:56.116Z,67.04
2023-03-07T07:48:24.491Z,63.73
2023-03-07T07:50:52.831Z,57.87
2023-03-07T07:53:21.523Z,52.61
2023-03-07T07:55:49.896Z,51.99
2023-03-07T07:58:18.379Z,53.65
2023-03-07T08:00:46.907Z,54.69
2023-03-07T08:03:15.157Z,55.84
2023-03-07T08:05:48.838Z,57.37
2023-03-07T08:08:18.997Z,57.59
2023-03-07T08:10:47.979Z,58.71
2023-03-07T08:13:17.915Z,59.64
2023-03-07T08:15:46.015Z,60.25
2023-03-07T08:18:14.216Z,60.00
2023-03-07T08:20:42.283Z,60.70
2023-03-07T08:23:10.260Z,61.24
2023-03-07T08:25:38.736Z,64.24
2023-03-07T08:28:06.736Z,67.19
2023-03-07T08:30:37.062Z,64.50
2023-03-07T08:33:05.202Z,59.26
2023-03-07T08:35:33.425Z,53.69
2023-03-07T08:38:01.655Z,53.76
2023-03-07T08:40:31.359Z,54.67
2023-03-07T08:42:59.781Z,55.16
2023-03-07T08:45:28.030Z,56.17
2023-03-07T08:47:57.623Z,56.61
2023-03-07T08:50:28.508Z,57.65
2023-03-07T08:52:57.890Z,58.34
2023-03-07T08:55:26.341Z,60.43
2023-03-07T08:57:54.309Z,60.82
2023-03-07T09:00:22.381Z,61.02
2023-03-07T09:02:50.317Z,61.21
2023-03-07T09:05:18.435Z,63.99
2023-03-07T09:07:46.376Z,68.45
2023-03-07T09:10:14.358Z,65.63
2023-03-07T09:12:42.262Z,57.84
2023-03-07T09:15:10.827Z,52.68
2023-03-07T09:17:39.296Z,52.49
2023-03-07T09:20:09.244Z,53.83
2023-03-07T09:22:37.823Z,54.52
2023-03-07T09:25:06.586Z,55.85
2023-03-07T09:27:34.750Z,57.48
2023-03-07T09:30:02.845Z,57.21
2023-03-07T09:32:33.734Z,57.31
2023-03-07T09:35:02.024Z,57.94
2023-03-07T09:37:30.016Z,58.89
2023-03-07T09:39:57.963Z,59.87
2023-03-07T09:43:09.040Z,59.97
2023-03-07T09:46:09.209Z,59.80
2023-03-07T09:48:55.473Z,60.84
2023-03-07T09:51:40.279Z,60.96
2023-03-07T09:54:20.326Z,61.80
2023-03-07T09:56:58.517Z,61.01
2023-03-07T09:59:43.534Z,66.11
2023-03-07T10:02:28.826Z,67.02
2023-03-07T10:05:16.252Z,58.70
2023-03-07T10:07:44.363Z,52.78
2023-03-07T10:10:17.850Z,53.63
2023-03-07T10:12:51.883Z,54.63
2023-03-07T10:15:46.432Z,55.47
2023-03-07T10:18:14.603Z,55.81
2023-03-07T10:20:52.121Z,57.18
2023-03-07T10:23:41.575Z,57.42
2023-03-07T10:26:24.357Z,57.96
2023-03-07T10:28:52.856Z,58.68
2023-03-07T10:31:25.796Z,59.93
2023-03-07T10:33:54.770Z,59.50
2023-03-07T10:36:29.226Z,60.00
2023-03-07T10:39:19.036Z,59.69
2023-03-07T10:41:47.008Z,60.72
2023-03-07T10:44:18.621Z,61.10
2023-03-07T10:46:55.688Z,63.44
2023-03-07T10:49:37.749Z,65.80
2023-03-07T10:52:29.364Z,61.36
2023-03-07T10:55:33.887Z,55.12
2023-03-07T10:58:28.498Z,51.83
2023-03-07T11:01:03.725Z,52.76
2023-03-07T11:03:54.134Z,54.46
2023-03-07T11:06:40.593Z,56.86
2023-03-07T11:09:19.452Z,57.53
2023-03-07T11:11:58.102Z,57.85
2023-03-07T11:14:27.980Z,58.83
2023-03-07T11:16:59.387Z,59.34
2023-03-07T11:19:34.966Z,60.33
2023-03-07T11:22:16.048Z,60.87
2023-03-07T11:25:00.517Z,61.25
2023-03-07T11:27:48.046Z,61.63
2023-03-07T11:30:26.743Z,61.56
2023-03-07T11:33:22.869Z,66.43
2023-03-07T11:36:14.186Z,64.47
2023-03-07T11:39:12.303Z,55.59
2023-03-07T11:41:48.030Z,54.38
2023-03-07T11:44:41.224Z,55.25
2023-03-07T11:47:44.700Z,55.52
2023-03-07T11:50:23.414Z,57.74
2023-03-07T11:53:20.070Z,60.49
2023-03-07T11:56:12.737Z,60.35
2023-03-07T11:58:47.216Z,60.52
2023-03-07T12:01:40.365Z,61.58
2023-03-07T12:04:30.351Z,64.06
2023-03-07T12:07:16.753Z,63.90
2023-03-07T12:10:16.572Z,57.14
2023-03-07T12:13:00.614Z,53.85
2023-03-07T12:15:57.045Z,55.33
2023-03-07T12:18:53.499Z,57.41
2023-03-07T12:21:33.333Z,58.11
2023-03-07T12:24:24.762Z,58.80
2023-03-07T12:27:26.236Z,58.92
2023-03-07T12:30:01.862Z,59.62
2023-03-07T12:32:34.649Z,60.65
2023-03-07T12:35:23.750Z,60.62
2023-03-07T12:37:51.778Z,59.99
2023-03-07T12:40:29.264Z,60.40
2023-03-07T12:43:09.212Z,60.72
2023-03-07T12:46:00.648Z,61.38
2023-03-07T12:48:34.658Z,60.49
2023-03-07T12:51:18.921Z,60.89
2023-03-07T12:53:55.212Z,60.67
2023-03-07T12:56:53.445Z,60.76
2023-03-07T12:59:22.325Z,61.20
2023-03-07T13:02:25.109Z,60.94
2023-03-07T13:04:53.592Z,59.98
2023-03-07T13:07:27.651Z,60.26
2023-03-07T13:09:59.292Z,59.97
2023-03-07T13:12:31.816Z,59.99
2023-03-07T13:15:06.469Z,59.94
2023-03-07T13:17:38.311Z,59.80
2023-03-07T13:20:15.292Z,60.19
2023-03-07T13:22:43.336Z,59.92
2023-03-07T13:25:20.473Z,59.95
2023-03-07T13:27:54.148Z,59.67
2023-03-07T13:30:24.614Z,59.64
2023-03-07T13:32:52.647Z,59.41
2023-03-07T13:35:32.911Z,59.64
2023-03-07T13:38:03.688Z,59.31
2023-03-07T13:40:47.368Z,59.76
2023-03-07T13:43:27.242Z,59.56
2023-03-07T13:45:59.857Z,60.06
2023-03-07T13:48:31.145Z,59.87
2023-03-07T13:50:59.044Z,59.73
2023-03-07T13:53:33.329Z,60.18
2023-03-07T13:56:15.862Z,59.86
2023-03-07T13:58:56.617Z,60.13
2023-03-07T14:01:27.498Z,59.99
2023-03-07T14:04:11.702Z,60.11
2023-03-07T14:06:50.489Z,60.17
2023-03-07T14:09:29.433Z,60.34
2023-03-07T14:12:12.681Z,59.52
2023-03-07T14:14:52.850Z,59.58
2023-03-07T14:17:42.306Z,60.01
2023-03-07T14:20:22.288Z,59.64
2023-03-07T14:23:03.528Z,59.31
2023-03-07T14:25:56.218Z,59.75
2023-03-07T14:28:28.786Z,59.90
2023-03-07T14:31:00.079Z,60.21
2023-03-07T14:33:37.460Z,59.81
2023-03-07T14:36:26.496Z,60.25
2023-03-07T14:38:57.392Z,60.47
2023-03-07T14:41:31.836Z,59.60
2023-03-07T14:44:38.689Z,60.31
2023-03-07T14:47:29.809Z,59.87
2023-03-07T14:50:26.890Z,60.27
2023-03-07T14:52:59.360Z,60.65
2023-03-07T14:55:35.508Z,60.61
2023-03-07T14:58:04.481Z,60.88
2023-03-07T15:00:34.838Z,60.98
2023-03-07T15:03:08.170Z,61.06
2023-03-07T15:05:52.038Z,60.97
2023-03-07T15:08:22.765Z,61.02
2023-03-07T15:11:03.237Z,60.96
2023-03-07T15:13:55.442Z,61.12
2023-03-07T15:16:34.498Z,60.82
2023-03-07T15:19:27.959Z,60.70
2023-03-07T15:21:59.617Z,61.03
2023-03-07T15:24:35.979Z,60.88
2023-03-07T15:27:06.628Z,60.71
2023-03-07T15:29:34.893Z,60.73
2023-03-07T15:32:07.559Z,60.86
2023-03-07T15:34:40.077Z,60.95
2023-03-07T15:37:24.195Z,61.10
2023-03-07T15:40:22.420Z,61.04
2023-03-07T15:42:53.912Z,61.58
2023-03-07T15:45:33.916Z,61.51
2023-03-07T15:48:18.788Z,61.66
2023-03-07T15:50:59.072Z,61.66
2023-03-07T15:53:30.665Z,61.79
2023-03-07T15:56:02.067Z,61.93
2023-03-07T15:58:31.120Z,61.70
2023-03-07T16:01:20.459Z,62.04
2023-03-07T16:04:01.562Z,66.96
2023-03-07T16:06:38.415Z,71.54
2023-03-07T16:09:06.786Z,69.62
2023-03-07T16:11:37.680Z,71.82
2023-03-07T16:14:14.086Z,59.03
2023-03-07T16:16:44.362Z,51.85
2023-03-07T16:19:12.592Z,50.87
2023-03-07T16:21:41.212Z,51.65
2023-03-07T16:24:09.566Z,52.45
2023-03-07T16:26:39.343Z,52.98
2023-03-07T16:29:08.988Z,53.70
2023-03-07T16:31:36.992Z,54.80
2023-03-07T16:34:06.687Z,55.27
2023-03-07T16:36:34.676Z,55.78
2023-03-07T16:39:02.634Z,56.78
2023-03-07T16:41:30.654Z,57.01
2023-03-07T16:43:59.747Z,57.93
2023-03-07T16:46:29.055Z,58.00
2023-03-07T16:48:57.061Z,58.31
2023-03-07T16:51:26.254Z,58.68
2023-03-07T16:58:31.109Z,59.66
2023-03-07T17:00:59.997Z,60.07
2023-03-07T17:03:29.907Z,60.64
2023-03-07T17:05:57.889Z,60.78
2023-03-07T17:08:25.832Z,61.07
2023-03-07T17:10:53.803Z,61.42
2023-03-07T17:13:21.751Z,61.83
2023-03-07T17:15:50.122Z,64.24
2023-03-07T17:18:18.020Z,69.98
2023-03-07T17:20:45.906Z,67.97
2023-03-07T17:23:13.800Z,64.65
2023-03-07T17:25:41.713Z,56.12
2023-03-07T17:28:14.334Z,51.68
2023-03-07T17:30:45.146Z,51.41
2023-03-07T17:33:14.999Z,52.48
2023-03-07T17:35:42.974Z,53.25
2023-03-07T17:38:10.841Z,54.25
2023-03-07T17:40:38.824Z,55.04
2023-03-07T17:43:06.831Z,55.86
2023-03-07T17:45:34.842Z,55.98
2023-03-07T17:48:02.858Z,56.62
2023-03-07T17:50:30.945Z,57.14
2023-03-07T17:52:59.045Z,57.78
2023-03-07T17:55:27.464Z,58.14
2023-03-07T17:57:55.628Z,58.63
2023-03-07T18:00:24.283Z,58.74
2023-03-07T18:02:54.273Z,59.84
2023-03-07T18:05:26.076Z,60.44
2023-03-07T18:07:54.528Z,61.20
2023-03-07T18:10:23.097Z,61.48
2023-03-07T18:12:53.676Z,61.09
2023-03-07T18:15:22.432Z,61.48
2023-03-07T18:17:50.529Z,61.83
2023-03-07T18:20:19.831Z,64.74
2023-03-07T18:22:48.191Z,67.88
2023-03-07T18:25:17.737Z,64.02
2023-03-07T18:27:46.076Z,57.88
2023-03-07T18:30:14.798Z,52.57
2023-03-07T18:32:42.842Z,52.58
2023-03-07T18:35:12.128Z,53.67
2023-03-07T18:37:40.016Z,54.98
2023-03-07T18:40:08.765Z,55.42
2023-03-07T18:42:36.814Z,55.87
2023-03-07T18:45:05.887Z,56.41
2023-03-07T18:47:33.783Z,57.35
2023-03-07T18:50:01.702Z,58.19
2023-03-07T18:52:29.618Z,58.80
2023-03-07T18:54:57.478Z,59.53
2023-03-07T18:57:25.385Z,59.80
2023-03-07T18:59:53.707Z,60.68
2023-03-07T19:02:21.637Z,60.89
2023-03-07T19:04:49.740Z,60.95
2023-03-07T19:07:17.654Z,60.82
2023-03-07T19:09:48.452Z,61.09
2023-03-07T19:12:16.736Z,61.05
2023-03-07T19:14:44.681Z,61.81
2023-03-07T19:17:12.609Z,65.00
2023-03-07T19:19:40.569Z,69.78
2023-03-07T19:22:08.858Z,67.18
2023-03-07T19:24:36.759Z,57.71
2023-03-07T19:27:04.665Z,52.75
2023-03-07T19:29:32.957Z,52.62
2023-03-07T19:32:00.889Z,54.06
2023-03-07T19:34:28.802Z,54.69
2023-03-07T19:36:56.912Z,55.93
2023-03-07T19:39:24.797Z,56.68
2023-03-07T19:41:53.358Z,58.02
2023-03-07T19:44:21.948Z,59.03
2023-03-07T19:46:49.865Z,59.43
2023-03-07T19:49:18.178Z,60.19
2023-03-07T19:51:46.071Z,60.27
2023-03-07T19:54:15.168Z,61.16
2023-03-07T19:56:45.113Z,62.78
2023-03-07T19:59:14.049Z,65.77
2023-03-07T20:01:42.070Z,62.34
2023-03-07T20:04:14.550Z,56.80
2023-03-07T20:11:16.665Z,55.23
2023-03-07T20:13:46.729Z,56.58
2023-03-07T20:16:17.420Z,57.46
2023-03-07T20:18:52.837Z,60.23
2023-03-07T20:21:27.861Z,61.50
2023-03-07T20:23:59.732Z,61.61
2023-03-07T20:26:34.405Z,65.80
2023-03-07T20:29:05.511Z,62.70
2023-03-07T20:31:34.698Z,56.46
2023-03-07T20:34:03.547Z,55.63
2023-03-07T20:36:36.788Z,57.13
2023-03-07T20:39:08.554Z,58.86
2023-03-07T20:41:36.541Z,59.36
2023-03-07T20:44:07.032Z,61.63
2023-03-07T20:46:36.039Z,61.73
2023-03-07T20:49:04.858Z,64.85
2023-03-07T20:51:36.163Z,66.35
2023-03-07T20:54:08.598Z,63.13
2023-03-07T20:56:39.278Z,55.86
2023-03-07T20:59:09.303Z,53.19
2023-03-07T21:01:37.351Z,54.42
2023-03-07T21:04:12.287Z,56.05
2023-03-07T21:06:42.729Z,57.69
2023-03-07T21:09:12.479Z,58.95
2023-03-07T21:11:47.215Z,60.47
2023-03-07T21:14:17.357Z,61.51
2023-03-07T21:16:45.413Z,63.89
2023-03-07T21:19:16.227Z,65.72
2023-03-07T21:26:22.209Z,53.48
2023-03-07T21:33:17.364Z,57.83
2023-03-07T21:35:45.467Z,59.00
2023-03-07T21:38:14.546Z,60.04
2023-03-07T21:40:43.346Z,61.67
2023-03-07T21:43:12.263Z,61.57
2023-03-07T21:45:41.491Z,64.69
2023-03-07T21:48:11.244Z,68.24
2023-03-07T21:50:43.324Z,63.98
2023-03-07T21:53:13.267Z,58.83
2023-03-07T21:55:50.262Z,53.96
2023-03-07T21:58:19.809Z,54.77
2023-03-07T22:00:49.308Z,56.29
2023-03-07T22:03:18.459Z,58.35
2023-03-07T22:05:46.553Z,60.29
2023-03-07T22:08:21.259Z,61.26
2023-03-07T22:11:01.289Z,61.70
2023-03-07T22:13:35.307Z,64.53
2023-03-07T22:20:36.287Z,55.35
2023-03-07T22:23:07.729Z,56.72
2023-03-07T22:25:38.281Z,57.93
2023-03-07T22:28:09.276Z,59.34
2023-03-07T22:30:40.299Z,62.02
2023-03-07T22:33:11.106Z,65.14
2023-03-07T22:35:42.745Z,62.59
2023-03-07T22:38:16.691Z,56.11
2023-03-07T22:40:48.311Z,54.52
2023-03-07T22:43:20.359Z,55.57
2023-03-07T22:45:53.350Z,57.36
2023-03-07T22:48:24.339Z,60.29
2023-03-07T22:50:55.341Z,61.42
2023-03-07T22:53:29.324Z,64.88
2023-03-07T22:56:00.754Z,66.25
2023-03-07T22:58:31.335Z,61.76
2023-03-07T23:01:02.351Z,55.37
2023-03-07T23:03:34.370Z,53.16
2023-03-07T23:13:41.293Z,59.11
2023-03-07T23:16:12.590Z,60.44
2023-03-07T23:18:42.245Z,60.96
2023-03-07T23:21:12.829Z,63.45
2023-03-07T23:23:41.219Z,67.38
2023-03-07T23:26:09.191Z,64.04
2023-03-07T23:28:37.201Z,59.06
2023-03-07T23:31:05.340Z,54.66
2023-03-07T23:33:34.017Z,55.58
2023-03-07T23:36:02.080Z,56.74
2023-03-07T23:38:30.154Z,57.80
2023-03-07T23:40:58.532Z,59.14
2023-03-07T23:43:26.643Z,60.27
2023-03-07T23:45:54.690Z,61.05
2023-03-07T23:48:22.750Z,65.51
2023-03-07T23:50:50.945Z,70.07
2023-03-07T23:53:18.888Z,65.90
2023-03-07T23:55:46.963Z,62.59
2023-03-07T23:58:15.137Z,55.33
